sensor_id;sensor_type;location;lat;lon;timestamp;pressure;altitude;pressure_sealevel;temperature;humidity
59971;BME280;45825;45.434;9.116;2023-04-29T00:01:03;100225.75;;;16.99;80.66
59971;BME280;45825;45.434;9.116;2023-04-29T00:03:29;100226.88;;;16.96;81.04
59971;BME280;45825;45.434;9.116;2023-04-29T00:05:56;100221.00;;;17.14;81.48
59971;BME280;45825;45.434;9.116;2023-04-29T00:08:22;100212.38;;;17.22;80.20
59971;BME280;45825;45.434;9.116;2023-04-29T00:10:47;100221.00;;;17.14;80.54
59971;BME280;45825;45.434;9.116;2023-04-29T00:13:12;100222.19;;;16.88;81.95
59971;BME280;45825;45.434;9.116;2023-04-29T00:15:39;100218.31;;;16.93;82.42
59971;BME280;45825;45.434;9.116;2023-04-29T00:18:05;100207.22;;;16.87;82.24
59971;BME280;45825;45.434;9.116;2023-04-29T00:20:30;100204.06;;;16.94;82.38
59971;BME280;45825;45.434;9.116;2023-04-29T00:22:56;100211.16;;;16.93;82.19
59971;BME280;45825;45.434;9.116;2023-04-29T00:25:21;100196.91;;;16.94;82.01
59971;BME280;45825;45.434;9.116;2023-04-29T00:27:46;100188.19;;;17.03;82.04
59971;BME280;45825;45.434;9.116;2023-04-29T00:30:11;100197.34;;;17.11;81.35
59971;BME280;45825;45.434;9.116;2023-04-29T00:32:37;100197.28;;;17.01;81.92
59971;BME280;45825;45.434;9.116;2023-04-29T00:35:02;100200.16;;;16.98;82.12
59971;BME280;45825;45.434;9.116;2023-04-29T00:37:28;100197.19;;;16.91;82.84
59971;BME280;45825;45.434;9.116;2023-04-29T00:39:53;100194.25;;;16.94;82.08
59971;BME280;45825;45.434;9.116;2023-04-29T00:42:19;100186.28;;;16.73;83.73
59971;BME280;45825;45.434;9.116;2023-04-29T00:44:44;100170.94;;;16.76;83.52
59971;BME280;45825;45.434;9.116;2023-04-29T00:47:10;100173.19;;;16.81;83.60
59971;BME280;45825;45.434;9.116;2023-04-29T00:49:37;100167.94;;;16.70;83.57
59971;BME280;45825;45.434;9.116;2023-04-29T00:52:03;100180.63;;;16.66;84.81
59971;BME280;45825;45.434;9.116;2023-04-29T00:54:29;100167.19;;;16.68;84.39
59971;BME280;45825;45.434;9.116;2023-04-29T00:56:55;100175.09;;;16.58;85.27
59971;BME280;45825;45.434;9.116;2023-04-29T00:59:20;100169.94;;;16.45;86.80
59971;BME280;45825;45.434;9.116;2023-04-29T01:01:46;100170.13;;;16.32;86.90
59971;BME280;45825;45.434;9.116;2023-04-29T01:04:12;100169.53;;;16.61;86.17
59971;BME280;45825;45.434;9.116;2023-04-29T01:09:46;100174.53;;;16.43;86.66
59971;BME280;45825;45.434;9.116;2023-04-29T01:12:33;100175.44;;;16.32;87.08
59971;BME280;45825;45.434;9.116;2023-04-29T01:15:25;100161.66;;;16.27;87.55
59971;BME280;45825;45.434;9.116;2023-04-29T01:18:04;100161.22;;;16.22;88.30
59971;BME280;45825;45.434;9.116;2023-04-29T01:20:31;100159.13;;;16.25;87.46
59971;BME280;45825;45.434;9.116;2023-04-29T01:22:57;100154.59;;;16.16;88.24
59971;BME280;45825;45.434;9.116;2023-04-29T01:25:23;100172.19;;;16.28;88.16
59971;BME280;45825;45.434;9.116;2023-04-29T01:33:07;100184.28;;;16.54;86.27
59971;BME280;45825;45.434;9.116;2023-04-29T01:38:24;100195.91;;;16.41;87.36
59971;BME280;45825;45.434;9.116;2023-04-29T01:41:13;100201.22;;;16.30;87.72
59971;BME280;45825;45.434;9.116;2023-04-29T01:43:40;100205.34;;;16.34;87.51
59971;BME280;45825;45.434;9.116;2023-04-29T01:46:11;100202.81;;;16.32;87.99
59971;BME280;45825;45.434;9.116;2023-04-29T01:48:39;100179.44;;;16.26;88.39
59971;BME280;45825;45.434;9.116;2023-04-29T01:51:04;100156.84;;;16.32;88.75
59971;BME280;45825;45.434;9.116;2023-04-29T01:53:31;100157.03;;;16.40;87.96
59971;BME280;45825;45.434;9.116;2023-04-29T01:55:57;100161.94;;;16.24;88.98
59971;BME280;45825;45.434;9.116;2023-04-29T01:58:22;100167.94;;;16.26;89.53
59971;BME280;45825;45.434;9.116;2023-04-29T02:00:47;100174.72;;;16.18;90.37
59971;BME280;45825;45.434;9.116;2023-04-29T02:03:12;100172.41;;;16.25;89.66
59971;BME280;45825;45.434;9.116;2023-04-29T02:05:38;100167.47;;;16.09;89.87
59971;BME280;45825;45.434;9.116;2023-04-29T02:08:03;100164.47;;;16.02;89.92
59971;BME280;45825;45.434;9.116;2023-04-29T02:10:31;100155.94;;;16.10;91.31
59971;BME280;45825;45.434;9.116;2023-04-29T02:12:57;100153.72;;;16.15;89.86
59971;BME280;45825;45.434;9.116;2023-04-29T02:15:25;100143.00;;;16.17;90.13
59971;BME280;45825;45.434;9.116;2023-04-29T02:17:50;100152.66;;;16.18;89.24
59971;BME280;45825;45.434;9.116;2023-04-29T02:20:16;100160.38;;;16.10;89.61
59971;BME280;45825;45.434;9.116;2023-04-29T02:22:41;100163.16;;;15.97;89.65
59971;BME280;45825;45.434;9.116;2023-04-29T02:25:07;100161.03;;;15.90;91.13
59971;BME280;45825;45.434;9.116;2023-04-29T02:27:32;100166.53;;;15.87;92.61
59971;BME280;45825;45.434;9.116;2023-04-29T02:29:57;100156.44;;;15.92;92.06
59971;BME280;45825;45.434;9.116;2023-04-29T02:32:23;100154.47;;;15.83;91.49
59971;BME280;45825;45.434;9.116;2023-04-29T02:34:48;100165.69;;;15.87;92.21
59971;BME280;45825;45.434;9.116;2023-04-29T02:37:13;100164.38;;;15.81;91.94
59971;BME280;45825;45.434;9.116;2023-04-29T02:39:40;100168.81;;;15.81;92.04
59971;BME280;45825;45.434;9.116;2023-04-29T02:42:05;100155.69;;;15.79;91.96
59971;BME280;45825;45.434;9.116;2023-04-29T02:44:30;100158.94;;;15.83;92.18
59971;BME280;45825;45.434;9.116;2023-04-29T02:46:56;100169.69;;;15.81;92.70
59971;BME280;45825;45.434;9.116;2023-04-29T02:49:22;100178.59;;;15.80;91.92
59971;BME280;45825;45.434;9.116;2023-04-29T02:51:47;100174.13;;;15.81;92.46
59971;BME280;45825;45.434;9.116;2023-04-29T02:54:14;100157.16;;;15.95;92.47
59971;BME280;45825;45.434;9.116;2023-04-29T02:56:40;100162.56;;;16.16;90.90
59971;BME280;45825;45.434;9.116;2023-04-29T02:59:05;100166.56;;;15.99;90.52
59971;BME280;45825;45.434;9.116;2023-04-29T03:01:31;100162.69;;;15.80;91.38
59971;BME280;45825;45.434;9.116;2023-04-29T03:03:56;100152.78;;;15.82;92.06
59971;BME280;45825;45.434;9.116;2023-04-29T03:06:22;100154.00;;;16.12;90.98
59971;BME280;45825;45.434;9.116;2023-04-29T03:08:47;100156.88;;;16.20;89.90
59971;BME280;45825;45.434;9.116;2023-04-29T03:11:13;100159.91;;;16.16;89.13
59971;BME280;45825;45.434;9.116;2023-04-29T03:13:38;100174.63;;;16.09;89.90
59971;BME280;45825;45.434;9.116;2023-04-29T03:16:03;100176.44;;;15.97;90.77
59971;BME280;45825;45.434;9.116;2023-04-29T03:18:29;100174.13;;;15.81;91.44
59971;BME280;45825;45.434;9.116;2023-04-29T03:20:54;100161.22;;;15.87;91.59
59971;BME280;45825;45.434;9.116;2023-04-29T03:23:19;100156.03;;;15.86;91.75
59971;BME280;45825;45.434;9.116;2023-04-29T03:25:46;100151.97;;;15.93;91.50
59971;BME280;45825;45.434;9.116;2023-04-29T03:28:11;100153.88;;;15.91;91.28
59971;BME280;45825;45.434;9.116;2023-04-29T03:30:37;100152.44;;;15.87;91.69
59971;BME280;45825;45.434;9.116;2023-04-29T03:33:02;100144.97;;;15.92;91.78
59971;BME280;45825;45.434;9.116;2023-04-29T03:35:28;100147.94;;;15.87;91.63
59971;BME280;45825;45.434;9.116;2023-04-29T03:37:53;100141.31;;;15.82;91.73
59971;BME280;45825;45.434;9.116;2023-04-29T03:40:18;100140.75;;;15.67;92.44
59971;BME280;45825;45.434;9.116;2023-04-29T03:42:44;100145.81;;;15.70;92.58
59971;BME280;45825;45.434;9.116;2023-04-29T03:45:09;100144.84;;;15.82;92.05
59971;BME280;45825;45.434;9.116;2023-04-29T03:47:37;100144.97;;;15.92;91.24
59971;BME280;45825;45.434;9.116;2023-04-29T03:50:03;100137.16;;;15.90;90.03
59971;BME280;45825;45.434;9.116;2023-04-29T03:52:28;100129.03;;;15.92;91.88
59971;BME280;45825;45.434;9.116;2023-04-29T03:54:53;100129.78;;;15.94;90.12
59971;BME280;45825;45.434;9.116;2023-04-29T03:57:19;100123.38;;;15.97;90.52
59971;BME280;45825;45.434;9.116;2023-04-29T03:59:44;100116.00;;;15.89;91.39
59971;BME280;45825;45.434;9.116;2023-04-29T04:02:14;100114.69;;;15.83;91.50
59971;BME280;45825;45.434;9.116;2023-04-29T04:04:39;100108.16;;;15.87;91.88
59971;BME280;45825;45.434;9.116;2023-04-29T04:07:05;100115.19;;;16.00;90.28
59971;BME280;45825;45.434;9.116;2023-04-29T04:09:30;100108.91;;;16.01;90.12
59971;BME280;45825;45.434;9.116;2023-04-29T04:11:57;100119.88;;;16.08;89.38
59971;BME280;45825;45.434;9.116;2023-04-29T04:14:23;100114.06;;;16.02;89.59
59971;BME280;45825;45.434;9.116;2023-04-29T04:16:48;100109.03;;;15.76;90.90
59971;BME280;45825;45.434;9.116;2023-04-29T04:19:14;100120.59;;;15.87;91.65
59971;BME280;45825;45.434;9.116;2023-04-29T04:21:40;100112.13;;;15.82;91.44
59971;BME280;45825;45.434;9.116;2023-04-29T04:24:05;100113.72;;;15.73;92.09
59971;BME280;45825;45.434;9.116;2023-04-29T04:26:31;100119.63;;;15.76;92.18
59971;BME280;45825;45.434;9.116;2023-04-29T04:28:56;100115.56;;;15.72;92.61
59971;BME280;45825;45.434;9.116;2023-04-29T04:31:21;100117.94;;;15.75;93.31
59971;BME280;45825;45.434;9.116;2023-04-29T04:33:47;100124.47;;;15.83;92.56
59971;BME280;45825;45.434;9.116;2023-04-29T04:36:12;100123.63;;;15.71;94.25
59971;BME280;45825;45.434;9.116;2023-04-29T04:38:37;100125.06;;;15.52;96.10
59971;BME280;45825;45.434;9.116;2023-04-29T04:41:05;100133.38;;;15.59;99.99
59971;BME280;45825;45.434;9.116;2023-04-29T04:43:31;100128.94;;;15.71;97.52
59971;BME280;45825;45.434;9.116;2023-04-29T04:45:56;100128.22;;;15.69;96.97
59971;BME280;45825;45.434;9.116;2023-04-29T04:48:22;100128.19;;;15.80;97.60
59971;BME280;45825;45.434;9.116;2023-04-29T04:50:47;100132.66;;;15.68;97.78
59971;BME280;45825;45.434;9.116;2023-04-29T04:53:12;100137.59;;;15.50;99.06
59971;BME280;45825;45.434;9.116;2023-04-29T04:55:37;100141.13;;;15.39;100.00
59971;BME280;45825;45.434;9.116;2023-04-29T04:58:03;100154.22;;;15.63;100.00
59971;BME280;45825;45.434;9.116;2023-04-29T05:00:28;100157.00;;;15.85;99.64
59971;BME280;45825;45.434;9.116;2023-04-29T05:02:53;100157.72;;;15.87;99.25
59971;BME280;45825;45.434;9.116;2023-04-29T05:05:19;100173.91;;;16.06;96.54
59971;BME280;45825;45.434;9.116;2023-04-29T05:07:44;100178.00;;;15.99;96.43
59971;BME280;45825;45.434;9.116;2023-04-29T05:10:10;100171.81;;;15.87;96.58
59971;BME280;45825;45.434;9.116;2023-04-29T05:12:35;100167.16;;;15.91;97.49
59971;BME280;45825;45.434;9.116;2023-04-29T05:15:01;100161.38;;;15.63;99.54
59971;BME280;45825;45.434;9.116;2023-04-29T05:17:27;100167.38;;;15.88;100.00
59971;BME280;45825;45.434;9.116;2023-04-29T05:19:52;100175.44;;;15.86;98.98
59971;BME280;45825;45.434;9.116;2023-04-29T05:22:18;100180.31;;;15.92;97.95
59971;BME280;45825;45.434;9.116;2023-04-29T05:24:43;100180.66;;;15.99;97.48
59971;BME280;45825;45.434;9.116;2023-04-29T05:27:08;100174.28;;;15.90;98.34
59971;BME280;45825;45.434;9.116;2023-04-29T05:29:33;100183.91;;;15.69;100.00
59971;BME280;45825;45.434;9.116;2023-04-29T05:31:59;100189.22;;;15.80;100.00
59971;BME280;45825;45.434;9.116;2023-04-29T05:34:24;100189.25;;;15.91;99.61
59971;BME280;45825;45.434;9.116;2023-04-29T05:36:50;100185.50;;;16.05;97.00
59971;BME280;45825;45.434;9.116;2023-04-29T05:39:15;100193.31;;;16.07;97.28
59971;BME280;45825;45.434;9.116;2023-04-29T05:41:41;100200.09;;;16.00;97.44
59971;BME280;45825;45.434;9.116;2023-04-29T05:44:07;100200.09;;;16.00;98.75
59971;BME280;45825;45.434;9.116;2023-04-29T05:46:32;100205.13;;;16.14;98.45
59971;BME280;45825;45.434;9.116;2023-04-29T05:48:57;100209.38;;;15.94;97.91
59971;BME280;45825;45.434;9.116;2023-04-29T05:51:23;100206.84;;;16.04;97.14
59971;BME280;45825;45.434;9.116;2023-04-29T05:53:48;100206.81;;;15.70;100.00
59971;BME280;45825;45.434;9.116;2023-04-29T05:56:13;100205.00;;;15.82;100.00
59971;BME280;45825;45.434;9.116;2023-04-29T05:58:38;100214.53;;;15.84;100.00
59971;BME280;45825;45.434;9.116;2023-04-29T06:01:04;100209.94;;;15.75;100.00
59971;BME280;45825;45.434;9.116;2023-04-29T06:03:29;100206.09;;;15.68;100.00
59971;BME280;45825;45.434;9.116;2023-04-29T06:05:55;100209.28;;;15.37;100.00
59971;BME280;45825;45.434;9.116;2023-04-29T06:08:20;100212.69;;;15.39;100.00
59971;BME280;45825;45.434;9.116;2023-04-29T06:10:46;100207.56;;;15.25;100.00
59971;BME280;45825;45.434;9.116;2023-04-29T06:13:11;100216.69;;;15.45;100.00
59971;BME280;45825;45.434;9.116;2023-04-29T06:15:37;100212.31;;;15.44;100.00
59971;BME280;45825;45.434;9.116;2023-04-29T06:18:02;100218.81;;;15.28;100.00
59971;BME280;45825;45.434;9.116;2023-04-29T06:20:28;100217.50;;;15.45;100.00
59971;BME280;45825;45.434;9.116;2023-04-29T06:22:53;100222.56;;;15.48;100.00
59971;BME280;45825;45.434;9.116;2023-04-29T06:25:19;100232.09;;;15.51;100.00
59971;BME280;45825;45.434;9.116;2023-04-29T06:27:44;100232.69;;;15.43;100.00
59971;BME280;45825;45.434;9.116;2023-04-29T06:30:09;100229.59;;;15.61;100.00
59971;BME280;45825;45.434;9.116;2023-04-29T06:32:36;100222.00;;;15.68;100.00
59971;BME280;45825;45.434;9.116;2023-04-29T06:35:01;100230.84;;;15.32;100.00
59971;BME280;45825;45.434;9.116;2023-04-29T06:37:27;100238.78;;;15.21;100.00
59971;BME280;45825;45.434;9.116;2023-04-29T06:39:52;100241.22;;;15.24;100.00
59971;BME280;45825;45.434;9.116;2023-04-29T06:42:18;100244.25;;;15.42;100.00
59971;BME280;45825;45.434;9.116;2023-04-29T06:44:43;100248.09;;;15.38;100.00
59971;BME280;45825;45.434;9.116;2023-04-29T06:47:09;100246.84;;;15.19;100.00
59971;BME280;45825;45.434;9.116;2023-04-29T06:49:34;100244.59;;;15.26;100.00
59971;BME280;45825;45.434;9.116;2023-04-29T06:51:59;100245.91;;;15.32;100.00
59971;BME280;45825;45.434;9.116;2023-04-29T06:54:26;100247.34;;;15.25;100.00
59971;BME280;45825;45.434;9.116;2023-04-29T06:56:52;100246.13;;;15.17;100.00
59971;BME280;45825;45.434;9.116;2023-04-29T06:59:18;100260.16;;;15.06;100.00
59971;BME280;45825;45.434;9.116;2023-04-29T07:01:43;100248.53;;;15.20;100.00
59971;BME280;45825;45.434;9.116;2023-04-29T07:04:08;100253.75;;;15.33;100.00
59971;BME280;45825;45.434;9.116;2023-04-29T07:06:33;100253.94;;;15.19;100.00
59971;BME280;45825;45.434;9.116;2023-04-29T07:08:59;100253.69;;;15.22;100.00
59971;BME280;45825;45.434;9.116;2023-04-29T07:11:26;100252.78;;;15.23;100.00
59971;BME280;45825;45.434;9.116;2023-04-29T07:13:51;100258.63;;;15.15;100.00
59971;BME280;45825;45.434;9.116;2023-04-29T07:16:18;100262.38;;;15.13;100.00
59971;BME280;45825;45.434;9.116;2023-04-29T07:18:45;100259.81;;;15.11;100.00
59971;BME280;45825;45.434;9.116;2023-04-29T07:21:11;100265.88;;;15.25;100.00
59971;BME280;45825;45.434;9.116;2023-04-29T07:23:36;100262.97;;;15.16;100.00
59971;BME280;45825;45.434;9.116;2023-04-29T07:26:15;100259.03;;;15.33;100.00
59971;BME280;45825;45.434;9.116;2023-04-29T07:28:41;100255.34;;;15.47;100.00
59971;BME280;45825;45.434;9.116;2023-04-29T07:31:07;100250.75;;;15.49;100.00
59971;BME280;45825;45.434;9.116;2023-04-29T07:33:34;100239.19;;;15.39;100.00
59971;BME280;45825;45.434;9.116;2023-04-29T07:36:00;100255.38;;;15.59;100.00
59971;BME280;45825;45.434;9.116;2023-04-29T07:38:25;100257.22;;;15.70;100.00
59971;BME280;45825;45.434;9.116;2023-04-29T07:40:51;100261.78;;;15.68;100.00
59971;BME280;45825;45.434;9.116;2023-04-29T07:43:16;100250.19;;;15.57;100.00
59971;BME280;45825;45.434;9.116;2023-04-29T07:45:42;100246.94;;;15.65;100.00
59971;BME280;45825;45.434;9.116;2023-04-29T07:48:07;100246.59;;;15.70;100.00
59971;BME280;45825;45.434;9.116;2023-04-29T07:50:35;100246.34;;;15.73;100.00
59971;BME280;45825;45.434;9.116;2023-04-29T07:53:02;100249.50;;;15.78;100.00
59971;BME280;45825;45.434;9.116;2023-04-29T07:55:28;100250.69;;;15.74;100.00
59971;BME280;45825;45.434;9.116;2023-04-29T07:57:55;100258.69;;;16.08;100.00
59971;BME280;45825;45.434;9.116;2023-04-29T08:00:21;100250.88;;;16.06;100.00
59971;BME280;45825;45.434;9.116;2023-04-29T08:02:50;100253.16;;;16.11;100.00
59971;BME280;45825;45.434;9.116;2023-04-29T08:05:16;100253.63;;;16.16;100.00
59971;BME280;45825;45.434;9.116;2023-04-29T08:07:41;100260.88;;;16.03;100.00
59971;BME280;45825;45.434;9.116;2023-04-29T08:10:07;100267.00;;;15.92;100.00
59971;BME280;45825;45.434;9.116;2023-04-29T08:12:32;100270.75;;;16.24;100.00
59971;BME280;45825;45.434;9.116;2023-04-29T08:14:58;100270.16;;;16.20;100.00
59971;BME280;45825;45.434;9.116;2023-04-29T08:17:23;100278.00;;;16.22;100.00
59971;BME280;45825;45.434;9.116;2023-04-29T08:19:49;100263.88;;;16.32;100.00
59971;BME280;45825;45.434;9.116;2023-04-29T08:22:14;100275.16;;;16.57;100.00
59971;BME280;45825;45.434;9.116;2023-04-29T08:24:40;100273.25;;;16.59;100.00
59971;BME280;45825;45.434;9.116;2023-04-29T08:27:07;100260.94;;;16.58;100.00
59971;BME280;45825;45.434;9.116;2023-04-29T08:29:32;100264.66;;;16.67;100.00
59971;BME280;45825;45.434;9.116;2023-04-29T08:31:58;100262.31;;;16.85;100.00
59971;BME280;45825;45.434;9.116;2023-04-29T08:34:23;100260.47;;;16.97;100.00
59971;BME280;45825;45.434;9.116;2023-04-29T08:36:49;100263.44;;;17.15;100.00
59971;BME280;45825;45.434;9.116;2023-04-29T08:39:14;100258.00;;;16.73;100.00
59971;BME280;45825;45.434;9.116;2023-04-29T08:41:39;100254.56;;;16.94;100.00
59971;BME280;45825;45.434;9.116;2023-04-29T08:44:05;100255.91;;;16.88;100.00
59971;BME280;45825;45.434;9.116;2023-04-29T08:46:31;100249.03;;;17.18;100.00
59971;BME280;45825;45.434;9.116;2023-04-29T08:48:57;100251.59;;;17.41;100.00
59971;BME280;45825;45.434;9.116;2023-04-29T08:51:23;100250.06;;;17.48;100.00
59971;BME280;45825;45.434;9.116;2023-04-29T08:53:48;100246.56;;;17.48;100.00
59971;BME280;45825;45.434;9.116;2023-04-29T08:56:17;100251.59;;;17.41;100.00
59971;BME280;45825;45.434;9.116;2023-04-29T08:58:46;100254.75;;;17.35;100.00
59971;BME280;45825;45.434;9.116;2023-04-29T09:01:16;100258.22;;;17.14;100.00
59971;BME280;45825;45.434;9.116;2023-04-29T09:03:47;100253.97;;;17.44;100.00
59971;BME280;45825;45.434;9.116;2023-04-29T09:06:14;100235.78;;;17.49;100.00
59971;BME280;45825;45.434;9.116;2023-04-29T09:08:40;100237.75;;;17.68;100.00
59971;BME280;45825;45.434;9.116;2023-04-29T09:11:08;100231.63;;;17.78;100.00
59971;BME280;45825;45.434;9.116;2023-04-29T09:13:34;100228.31;;;17.95;100.00
59971;BME280;45825;45.434;9.116;2023-04-29T09:15:59;100239.94;;;18.15;100.00
59971;BME280;45825;45.434;9.116;2023-04-29T09:18:45;100235.72;;;18.23;100.00
59971;BME280;45825;45.434;9.116;2023-04-29T09:23:37;100228.47;;;18.35;100.00
59971;BME280;45825;45.434;9.116;2023-04-29T09:26:02;100232.16;;;18.53;100.00
59971;BME280;45825;45.434;9.116;2023-04-29T09:28:28;100235.25;;;18.68;100.00
59971;BME280;45825;45.434;9.116;2023-04-29T09:30:53;100226.00;;;18.82;100.00
59971;BME280;45825;45.434;9.116;2023-04-29T09:33:19;100219.72;;;19.13;100.00
59971;BME280;45825;45.434;9.116;2023-04-29T09:35:44;100211.88;;;19.11;100.00
59971;BME280;45825;45.434;9.116;2023-04-29T09:38:13;100213.53;;;18.93;100.00
59971;BME280;45825;45.434;9.116;2023-04-29T09:40:39;100200.47;;;18.70;100.00
59971;BME280;45825;45.434;9.116;2023-04-29T09:43:14;100193.63;;;18.97;100.00
59971;BME280;45825;45.434;9.116;2023-04-29T09:45:44;100191.91;;;19.25;100.00
59971;BME280;45825;45.434;9.116;2023-04-29T09:48:11;100197.91;;;19.37;100.00
59971;BME280;45825;45.434;9.116;2023-04-29T09:50:37;100203.00;;;19.11;100.00
59971;BME280;45825;45.434;9.116;2023-04-29T09:53:07;100216.91;;;19.24;100.00
59971;BME280;45825;45.434;9.116;2023-04-29T09:58:34;100205.94;;;19.18;100.00
59971;BME280;45825;45.434;9.116;2023-04-29T10:01:04;100201.34;;;19.20;100.00
59971;BME280;45825;45.434;9.116;2023-04-29T10:03:35;100197.19;;;19.83;100.00
59971;BME280;45825;45.434;9.116;2023-04-29T10:06:02;100189.28;;;19.63;100.00
59971;BME280;45825;45.434;9.116;2023-04-29T10:08:28;100185.13;;;19.41;100.00
59971;BME280;45825;45.434;9.116;2023-04-29T10:11:02;100184.06;;;19.62;100.00
59971;BME280;45825;45.434;9.116;2023-04-29T10:13:28;100183.09;;;19.63;100.00
59971;BME280;45825;45.434;9.116;2023-04-29T10:18:37;100188.69;;;19.69;100.00
59971;BME280;45825;45.434;9.116;2023-04-29T10:21:06;100196.47;;;19.91;100.00
59971;BME280;45825;45.434;9.116;2023-04-29T10:23:33;100182.28;;;20.00;100.00
59971;BME280;45825;45.434;9.116;2023-04-29T10:25:59;100179.66;;;20.55;100.00
59971;BME280;45825;45.434;9.116;2023-04-29T10:28:30;100179.72;;;20.27;100.00
59971;BME280;45825;45.434;9.116;2023-04-29T10:30:57;100173.66;;;20.24;100.00
59971;BME280;45825;45.434;9.116;2023-04-29T10:33:25;100160.75;;;20.02;100.00
59971;BME280;45825;45.434;9.116;2023-04-29T10:35:52;100160.91;;;20.83;100.00
59971;BME280;45825;45.434;9.116;2023-04-29T10:38:24;100159.75;;;22.08;100.00
59971;BME280;45825;45.434;9.116;2023-04-29T10:40:52;100153.13;;;21.50;100.00
59971;BME280;45825;45.434;9.116;2023-04-29T10:43:22;100143.81;;;21.28;100.00
59971;BME280;45825;45.434;9.116;2023-04-29T10:45:48;100146.81;;;21.52;100.00
59971;BME280;45825;45.434;9.116;2023-04-29T10:48:15;100134.03;;;21.45;100.00
59971;BME280;45825;45.434;9.116;2023-04-29T10:53:14;100130.91;;;21.93;100.00
59971;BME280;45825;45.434;9.116;2023-04-29T10:55:40;100122.34;;;22.82;100.00
59971;BME280;45825;45.434;9.116;2023-04-29T11:01:00;100109.31;;;25.16;100.00
59971;BME280;45825;45.434;9.116;2023-04-29T11:06:11;100098.72;;;25.59;100.00
59971;BME280;45825;45.434;9.116;2023-04-29T11:08:36;100090.00;;;24.97;100.00
59971;BME280;45825;45.434;9.116;2023-04-29T11:11:05;100083.44;;;26.62;96.39
59971;BME280;45825;45.434;9.116;2023-04-29T11:13:38;100087.63;;;26.06;92.22
59971;BME280;45825;45.434;9.116;2023-04-29T11:18:29;100073.94;;;26.73;74.97
59971;BME280;45825;45.434;9.116;2023-04-29T11:23:39;100075.03;;;25.70;74.27
59971;BME280;45825;45.434;9.116;2023-04-29T11:26:09;100079.63;;;24.70;75.48
59971;BME280;45825;45.434;9.116;2023-04-29T11:28:35;100082.19;;;23.94;80.30
59971;BME280;45825;45.434;9.116;2023-04-29T11:31:02;100077.16;;;23.67;80.81
59971;BME280;45825;45.434;9.116;2023-04-29T11:33:30;100072.88;;;23.81;79.84
59971;BME280;45825;45.434;9.116;2023-04-29T11:35:56;100067.81;;;25.10;78.33
59971;BME280;45825;45.434;9.116;2023-04-29T11:38:25;100062.25;;;24.96;77.91
59971;BME280;45825;45.434;9.116;2023-04-29T11:40:51;100067.31;;;23.51;80.40
59971;BME280;45825;45.434;9.116;2023-04-29T11:43:17;100067.28;;;23.28;81.29
59971;BME280;45825;45.434;9.116;2023-04-29T11:45:46;100060.00;;;22.55;83.70
59971;BME280;45825;45.434;9.116;2023-04-29T11:48:22;100060.69;;;22.49;82.65
59971;BME280;45825;45.434;9.116;2023-04-29T11:50:55;100054.28;;;22.83;82.00
59971;BME280;45825;45.434;9.116;2023-04-29T11:53:24;100061.47;;;22.41;79.38
59971;BME280;45825;45.434;9.116;2023-04-29T11:55:54;100055.47;;;22.81;81.93
59971;BME280;45825;45.434;9.116;2023-04-29T11:58:20;100052.31;;;22.52;80.59
59971;BME280;45825;45.434;9.116;2023-04-29T12:00:46;100051.97;;;22.64;79.20
59971;BME280;45825;45.434;9.116;2023-04-29T12:03:15;100049.75;;;22.84;79.61
59971;BME280;45825;45.434;9.116;2023-04-29T12:05:53;100041.25;;;23.28;77.49
59971;BME280;45825;45.434;9.116;2023-04-29T12:08:19;100038.53;;;23.37;78.52
59971;BME280;45825;45.434;9.116;2023-04-29T12:10:46;100046.63;;;23.28;76.93
59971;BME280;45825;45.434;9.116;2023-04-29T12:13:12;100038.78;;;23.10;77.49
59971;BME280;45825;45.434;9.116;2023-04-29T12:15:39;100030.28;;;23.78;74.51
59971;BME280;45825;45.434;9.116;2023-04-29T12:18:05;100034.22;;;23.91;73.09
59971;BME280;45825;45.434;9.116;2023-04-29T12:20:30;100032.97;;;24.02;74.37
59971;BME280;45825;45.434;9.116;2023-04-29T12:23:10;100029.41;;;24.09;74.34
59971;BME280;45825;45.434;9.116;2023-04-29T12:25:35;100027.38;;;23.56;74.58
59971;BME280;45825;45.434;9.116;2023-04-29T12:28:01;100024.25;;;24.23;74.28
59971;BME280;45825;45.434;9.116;2023-04-29T12:30:28;100028.00;;;24.37;74.37
59971;BME280;45825;45.434;9.116;2023-04-29T12:32:53;100029.31;;;23.39;74.85
59971;BME280;45825;45.434;9.116;2023-04-29T12:35:19;100030.44;;;23.45;73.04
59971;BME280;45825;45.434;9.116;2023-04-29T12:37:49;100029.28;;;22.91;74.04
59971;BME280;45825;45.434;9.116;2023-04-29T12:40:15;100032.88;;;23.63;74.52
59971;BME280;45825;45.434;9.116;2023-04-29T12:42:42;100038.59;;;23.60;73.44
59971;BME280;45825;45.434;9.116;2023-04-29T12:45:28;100025.84;;;23.62;73.32
59971;BME280;45825;45.434;9.116;2023-04-29T12:47:55;100022.91;;;23.72;73.22
59971;BME280;45825;45.434;9.116;2023-04-29T12:50:35;100025.13;;;23.68;70.49
59971;BME280;45825;45.434;9.116;2023-04-29T12:53:06;100033.47;;;23.74;73.84
59971;BME280;45825;45.434;9.116;2023-04-29T12:55:36;100024.78;;;23.95;71.59
59971;BME280;45825;45.434;9.116;2023-04-29T12:58:03;100028.47;;;23.70;71.15
59971;BME280;45825;45.434;9.116;2023-04-29T13:00:29;100030.16;;;23.71;72.53
59971;BME280;45825;45.434;9.116;2023-04-29T13:02:55;100022.56;;;23.75;71.41
59971;BME280;45825;45.434;9.116;2023-04-29T13:05:20;100020.88;;;24.06;71.05
59971;BME280;45825;45.434;9.116;2023-04-29T13:07:47;100018.34;;;24.27;68.28
59971;BME280;45825;45.434;9.116;2023-04-29T13:10:12;100008.03;;;24.16;66.29
59971;BME280;45825;45.434;9.116;2023-04-29T13:12:38;100002.50;;;24.33;66.04
59971;BME280;45825;45.434;9.116;2023-04-29T13:15:05;99998.56;;;24.59;66.40